louisfabien Speed Test Results

        Days  
louisfabien louisfabien
Share Query AVG Img MAX Img AVG bbc MAX bbc iFrame
  
 
Showing results 1 to 25 of 268 for Username louisfabien arrow up Only Upload    arrow down Only Download   
Time arrow down ct    arrow up arrow down   Size    Speed ConnectID Provider TID
Thu Mar 30 2017 @ 6:49:20 am Sydney, AU US arrow 19.4 MB 20.5 Mbps 2.56 MB/s14502135983373Cadence Design historyXq4NRhkW7share history
Thu Mar 30 2017 @ 6:48:38 am Sydney, AU US arrow 6.3 MB 9.65 Mbps 1.21 MB/s14502135983373Cadence Design historyct4vzKuUCshare history
Thu Mar 30 2017 @ 6:23:28 am Sydney, AU arrow 6.3 MB 11.82 Mbps 1.48 MB/s1863552601666Activ8me history3KGUBMswLshare history
Thu Mar 30 2017 @ 6:23:19 am Sydney, AU arrow 64.8 MB 42.94 Mbps 5.37 MB/s1863552601666Activ8me historysvX41ytdOshare history
Thu Mar 30 2017 @ 6:18:56 am Sydney, AU US arrow 18.8 MB 21.14 Mbps 2.64 MB/s14502135983373Cadence Design historyjEyrK73fFshare history
Thu Mar 30 2017 @ 6:18:22 am Sydney, AU US arrow 19 MB 22.21 Mbps 2.78 MB/s14502135983373Cadence Design historyM3dotOIYWshare history
Thu Mar 30 2017 @ 5:48:31 am Sydney, AU US arrow 18.9 MB 21.83 Mbps 2.73 MB/s14502135983373Cadence Design historyuZ2kS6JKDshare history
Thu Mar 30 2017 @ 5:47:56 am Sydney, AU US arrow 37.9 MB 27.84 Mbps 3.48 MB/s14502135983373Cadence Design historycFkmYRZDlshare history
Thu Mar 30 2017 @ 5:44:06 am Sydney, AU arrow 6.4 MB 11.24 Mbps 1.41 MB/s1863552601666Activ8me historyVc2y6sOZnshare history
Thu Mar 30 2017 @ 5:43:54 am Sydney, AU arrow 62.4 MB 46.59 Mbps 5.82 MB/s1863552601666Activ8me historyOSXbxLck6share history
Thu Mar 30 2017 @ 5:18:02 am Sydney, AU US arrow 19.1 MB 20.93 Mbps 2.62 MB/s14502135983373Cadence Design historyht6FWXZ7sshare history
Thu Mar 30 2017 @ 5:17:27 am Sydney, AU US arrow 37.6 MB 26.68 Mbps 3.34 MB/s14502135983373Cadence Design historyrvqQixjM3share history
Thu Mar 30 2017 @ 5:14:04 am Sydney, AU arrow 6.2 MB 9.33 Mbps 1.17 MB/s1863552601666Activ8me historysnJjyqPA8share history
Thu Mar 30 2017 @ 5:13:51 am Sydney, AU arrow 64.6 MB 47.09 Mbps 5.89 MB/s1863552601666Activ8me historyDUt853Rjushare history
Thu Mar 30 2017 @ 4:47:32 am Sydney, AU US arrow 18.1 MB 22.08 Mbps 2.76 MB/s14502135983373Cadence Design historyWO9XSLMuHshare history
Thu Mar 30 2017 @ 4:46:58 am Sydney, AU US arrow 36.5 MB 27.33 Mbps 3.42 MB/s14502135983373Cadence Design historypNklJZLqFshare history
Thu Mar 30 2017 @ 4:43:45 am Sydney, AU arrow 6.4 MB 11.87 Mbps 1.48 MB/s1863552601666Activ8me historyXwIheRMFGshare history
Thu Mar 30 2017 @ 4:43:34 am Sydney, AU arrow 65.1 MB 45.6 Mbps 5.7 MB/s1863552601666Activ8me historyTVmlQBLyXshare history
Thu Mar 30 2017 @ 4:17:03 am Sydney, AU US arrow 18.9 MB 18.51 Mbps 2.31 MB/s14502135983373Cadence Design historyuLnyFpE3Yshare history
Thu Mar 30 2017 @ 4:16:29 am Sydney, AU US arrow 37.6 MB 27.39 Mbps 3.42 MB/s14502135983373Cadence Design historynWXUL1vZlshare history
Thu Mar 30 2017 @ 4:13:47 am Sydney, AU arrow 6.3 MB 10.53 Mbps 1.32 MB/s1863552601666Activ8me history3RE4rHkNvshare history
Thu Mar 30 2017 @ 4:13:37 am Sydney, AU arrow 94.1 MB 47.33 Mbps 5.92 MB/s1863552601666Activ8me historyL3hja71bKshare history
Thu Mar 30 2017 @ 3:46:34 am Sydney, AU US arrow 18.4 MB 21.67 Mbps 2.71 MB/s14502135983373Cadence Design historyU4OWL1XyTshare history
Thu Mar 30 2017 @ 3:46:00 am Sydney, AU US arrow 36.9 MB 26.71 Mbps 3.34 MB/s14502135983373Cadence Design historyi70IOvYsKshare history
Thu Mar 30 2017 @ 3:43:26 am Sydney, AU arrow 6.1 MB 9.78 Mbps 1.22 MB/s1863552601666Activ8me history81Jd2IHfRshare history
  
Displaying Internet Speed Test results for Username louisfabien
Speed Test Version 15.9
© 2017 TestMy Net LLC - TestMy.net - Terms & Privacy - Mobile